2024/07/21 05:00 VVNB 210500Z 09006KT 030V110 9999 SCT030 34/27 Q1005 NOSIG
2024/07/21 05:00 VVDN 210500Z 00000KT 9999 FEW015 BKN060 29/25 Q1004 NOSIG
2024/07/21 05:00 VVTS 210500Z 27012KT 9999 FEW024 SCT030 31/25 Q1007 NOSIG
2024/07/21 05:00 VVPB 210500Z 32003KT 9999 FEW015 SCT050 31/26 Q1004 NOSIG

Powered by MinhViet JSC.